createdAt,value
2018-09-18T00:02:11.876Z,10.83
2018-09-18T00:04:44.771Z,9.50
2018-09-18T00:07:18.616Z,6.50
2018-09-18T00:09:51.375Z,6.27
2018-09-18T00:12:24.768Z,7.97
2018-09-18T00:15:00.144Z,8.17
2018-09-18T00:17:33.391Z,6.67
2018-09-18T00:20:07.066Z,7.43
2018-09-18T00:22:51.303Z,7.50
2018-09-18T00:25:26.284Z,10.15
2018-09-18T00:28:00.308Z,17.10
2018-09-18T00:30:33.296Z,13.00
2018-09-18T00:33:07.065Z,7.57
2018-09-18T00:35:41.567Z,9.88
2018-09-18T00:38:14.856Z,12.63
2018-09-18T00:40:47.893Z,8.83
2018-09-18T00:43:20.939Z,10.37
2018-09-18T00:45:53.889Z,9.20
2018-09-18T00:48:28.126Z,9.70
2018-09-18T00:51:00.915Z,8.37
2018-09-18T00:53:41.527Z,9.57
2018-09-18T00:56:21.154Z,9.77
2018-09-18T00:58:54.869Z,9.30
2018-09-18T01:01:30.157Z,9.50
2018-09-18T01:04:08.970Z,7.60
2018-09-18T01:06:48.166Z,17.53
2018-09-18T01:09:23.625Z,11.40
2018-09-18T01:11:56.688Z,10.27
2018-09-18T01:14:36.323Z,6.63
2018-09-18T01:17:13.740Z,8.93
2018-09-18T01:19:48.251Z,11.73
2018-09-18T01:22:21.580Z,10.17
2018-09-18T01:24:54.430Z,9.00
2018-09-18T01:27:29.647Z,9.27
2018-09-18T01:30:02.887Z,10.25
2018-09-18T01:32:37.297Z,11.30
2018-09-18T01:35:16.165Z,12.90
2018-09-18T01:37:49.491Z,13.00
2018-09-18T01:40:23.035Z,11.50
2018-09-18T01:42:56.576Z,11.73
2018-09-18T01:45:30.335Z,12.10
2018-09-18T01:48:03.323Z,13.07
2018-09-18T01:50:36.497Z,10.60
2018-09-18T01:53:09.433Z,15.67
2018-09-18T01:55:42.748Z,9.57
2018-09-18T01:58:22.724Z,9.73
2018-09-18T02:01:00.459Z,9.67
2018-09-18T02:03:35.247Z,10.33
2018-09-18T02:06:12.533Z,9.00
2018-09-18T02:08:45.484Z,8.90
2018-09-18T02:11:18.605Z,11.13
2018-09-18T02:13:51.536Z,9.10
2018-09-18T02:16:24.745Z,9.97
2018-09-18T02:18:58.254Z,10.50
2018-09-18T02:21:31.107Z,11.40
2018-09-18T02:24:08.513Z,9.37
2018-09-18T02:26:41.441Z,11.50
2018-09-18T02:29:15.041Z,11.50
2018-09-18T02:31:47.779Z,12.37
2018-09-18T02:34:20.664Z,13.23
2018-09-18T02:36:53.280Z,17.65
2018-09-18T02:39:27.349Z,18.50
2018-09-18T02:42:00.134Z,17.50
2018-09-18T02:44:33.605Z,14.57
2018-09-18T02:47:06.575Z,14.73
2018-09-18T02:49:39.611Z,15.20
2018-09-18T02:52:14.183Z,14.83
2018-09-18T02:54:48.206Z,15.13
2018-09-18T02:57:27.573Z,16.10
2018-09-18T03:00:01.793Z,12.27
2018-09-18T03:02:34.965Z,11.87
2018-09-18T03:05:08.130Z,11.40
2018-09-18T03:07:41.839Z,12.60
2018-09-18T03:10:15.181Z,11.63
2018-09-18T03:12:47.845Z,14.37
2018-09-18T03:15:21.037Z,12.60
2018-09-18T03:17:54.009Z,13.93
2018-09-18T03:20:27.133Z,10.37
2018-09-18T03:23:00.216Z,26.10
2018-09-18T03:25:33.233Z,7.37
2018-09-18T03:28:12.477Z,7.57
2018-09-18T03:30:53.879Z,10.40
2018-09-18T03:33:32.390Z,8.60
2018-09-18T03:36:09.050Z,8.77
2018-09-18T03:38:47.794Z,8.80
2018-09-18T03:41:29.264Z,10.33
2018-09-18T03:44:02.274Z,7.80
2018-09-18T03:46:38.802Z,8.37
2018-09-18T03:49:14.515Z,11.33
2018-09-18T03:51:50.101Z,9.53
2018-09-18T03:54:25.099Z,10.53
2018-09-18T03:57:01.060Z,10.73
2018-09-18T03:59:35.636Z,9.20
2018-09-18T04:02:08.408Z,9.57
2018-09-18T04:04:48.489Z,10.63
2018-09-18T04:07:21.345Z,10.90
2018-09-18T04:10:00.063Z,10.37
2018-09-18T04:12:35.756Z,9.43
2018-09-18T04:15:13.688Z,9.37
2018-09-18T04:17:52.123Z,62.73
2018-09-18T04:20:29.046Z,111.77
2018-09-18T04:23:05.732Z,104.90
2018-09-18T04:25:41.910Z,63.50
2018-09-18T04:28:14.909Z,14.50
2018-09-18T04:30:47.764Z,8.43
2018-09-18T04:33:20.633Z,7.53
2018-09-18T04:35:53.345Z,7.50
2018-09-18T04:38:26.563Z,7.47
2018-09-18T04:41:06.377Z,7.17
2018-09-18T04:43:40.207Z,7.20
2018-09-18T04:46:18.125Z,8.00
2018-09-18T04:48:51.679Z,7.07
2018-09-18T04:51:28.480Z,7.67
2018-09-18T04:54:04.939Z,8.10
2018-09-18T04:56:43.698Z,8.93
2018-09-18T04:59:20.233Z,7.90
2018-09-18T05:01:56.778Z,8.47
2018-09-18T05:04:31.301Z,7.90
2018-09-18T05:07:06.923Z,7.17
2018-09-18T05:09:45.108Z,7.73
2018-09-18T05:12:26.200Z,8.33
2018-09-18T05:15:02.612Z,8.77
2018-09-18T05:17:35.653Z,8.88
2018-09-18T05:20:08.842Z,9.70
2018-09-18T05:22:42.111Z,8.50
2018-09-18T05:25:14.973Z,54.80
2018-09-18T05:27:49.083Z,24.57
2018-09-18T05:30:21.980Z,16.65
2018-09-18T05:33:02.132Z,12.80
2018-09-18T05:35:35.011Z,12.57
2018-09-18T05:38:07.996Z,9.83
2018-09-18T05:40:41.583Z,22.47
2018-09-18T05:43:14.389Z,111.83
2018-09-18T05:45:47.048Z,103.20
2018-09-18T05:48:20.135Z,17.57
2018-09-18T05:50:53.128Z,7.70
2018-09-18T05:53:26.253Z,7.50
2018-09-18T05:55:59.010Z,7.47
2018-09-18T05:58:32.291Z,8.63
2018-09-18T06:01:06.665Z,8.70
2018-09-18T06:03:39.580Z,9.20
2018-09-18T06:06:12.376Z,8.80
2018-09-18T06:08:49.060Z,7.83
2018-09-18T06:11:24.343Z,6.63
2018-09-18T06:14:02.299Z,8.00
2018-09-18T06:16:36.180Z,5.00
2018-09-18T06:19:09.352Z,5.30
2018-09-18T06:21:42.454Z,5.10
2018-09-18T06:24:18.217Z,5.58
2018-09-18T06:26:50.973Z,5.60
2018-09-18T06:29:24.799Z,5.20
2018-09-18T06:31:59.167Z,6.07
2018-09-18T06:34:32.429Z,7.43
2018-09-18T06:37:06.142Z,7.73
2018-09-18T06:39:40.083Z,6.87
2018-09-18T06:42:13.047Z,6.73
2018-09-18T06:44:52.332Z,6.93
2018-09-18T06:47:25.117Z,6.50
2018-09-18T06:49:58.090Z,7.37
2018-09-18T06:52:31.176Z,7.30
2018-09-18T06:55:13.630Z,7.33
2018-09-18T06:57:46.422Z,8.13
2018-09-18T07:00:26.277Z,8.93
2018-09-18T07:02:59.940Z,81.02
2018-09-18T07:05:32.817Z,58.90
2018-09-18T07:08:05.663Z,38.17
2018-09-18T07:10:38.210Z,22.70
2018-09-18T07:13:11.073Z,16.67
2018-09-18T07:15:43.792Z,8.90
2018-09-18T07:18:16.417Z,7.03
2018-09-18T07:20:56.960Z,7.20
2018-09-18T07:23:29.845Z,32.20
2018-09-18T07:26:02.892Z,79.17
2018-09-18T07:28:35.664Z,53.77
2018-09-18T07:31:08.481Z,49.30
2018-09-18T07:33:41.582Z,12.77
2018-09-18T07:36:14.708Z,13.27
2018-09-18T07:38:50.679Z,7.10
2018-09-18T07:41:23.991Z,7.27
2018-09-18T07:44:04.555Z,32.53
2018-09-18T07:46:41.224Z,14.77
2018-09-18T07:49:14.441Z,15.67
2018-09-18T07:51:47.360Z,23.92
2018-09-18T07:54:20.065Z,48.67
2018-09-18T07:56:53.184Z,71.87
2018-09-18T07:59:26.806Z,59.20
2018-09-18T08:01:59.973Z,84.17
2018-09-18T08:04:32.807Z,61.07
2018-09-18T08:07:07.163Z,32.50
2018-09-18T08:09:41.539Z,9.47
2018-09-18T08:12:14.353Z,7.27
2018-09-18T08:14:47.091Z,6.37
2018-09-18T08:17:23.258Z,39.20
2018-09-18T08:19:59.530Z,19.60
2018-09-18T08:22:36.163Z,45.60
2018-09-18T08:25:12.380Z,39.20
2018-09-18T08:27:48.073Z,30.63
2018-09-18T08:30:21.830Z,17.87
2018-09-18T08:33:01.254Z,16.30
2018-09-18T08:35:35.209Z,23.07
2018-09-18T08:38:07.877Z,29.90
2018-09-18T08:40:41.031Z,16.70
2018-09-18T08:43:18.496Z,10.57
2018-09-18T08:45:52.068Z,10.30
2018-09-18T08:48:29.060Z,7.63
2018-09-18T08:51:03.765Z,6.00
2018-09-18T08:53:36.591Z,19.17
2018-09-18T08:56:09.994Z,8.27
2018-09-18T08:58:42.599Z,8.50
2018-09-18T09:01:15.560Z,10.67
2018-09-18T09:03:49.157Z,9.47
2018-09-18T09:06:22.013Z,10.20
2018-09-18T09:08:56.152Z,8.90
2018-09-18T09:11:29.283Z,15.63
2018-09-18T09:14:02.746Z,58.70
2018-09-18T09:16:36.601Z,119.90
2018-09-18T09:19:10.572Z,131.03
2018-09-18T09:21:43.631Z,105.00
2018-09-18T09:24:17.037Z,54.93
2018-09-18T09:26:50.041Z,32.77
2018-09-18T09:29:22.994Z,13.80
2018-09-18T09:31:56.059Z,8.03
2018-09-18T09:34:28.884Z,6.60
2018-09-18T09:37:02.042Z,8.00
2018-09-18T09:39:35.275Z,9.87
2018-09-18T09:42:08.081Z,64.57
2018-09-18T09:44:41.255Z,112.17
2018-09-18T09:47:14.085Z,139.50
2018-09-18T09:49:47.974Z,126.40
2018-09-18T09:52:20.929Z,85.60
2018-09-18T09:54:53.714Z,62.37
2018-09-18T09:57:34.087Z,38.07
2018-09-18T10:00:07.426Z,22.33
2018-09-18T10:02:45.132Z,24.37
2018-09-18T10:05:19.952Z,59.57
2018-09-18T10:07:52.772Z,36.97
2018-09-18T10:10:25.949Z,13.37
2018-09-18T10:13:05.000Z,12.20
2018-09-18T10:15:37.936Z,11.97
2018-09-18T10:18:11.056Z,76.53
2018-09-18T10:20:43.669Z,58.48
2018-09-18T10:23:16.622Z,49.10
2018-09-18T10:25:50.105Z,23.27
2018-09-18T10:28:22.920Z,17.60
2018-09-18T10:30:55.709Z,10.53
2018-09-18T10:33:35.690Z,20.27
2018-09-18T10:36:08.652Z,10.30
2018-09-18T10:38:41.334Z,9.00
2018-09-18T10:41:14.082Z,10.23
2018-09-18T10:43:47.677Z,14.67
2018-09-18T10:46:28.489Z,17.87
2018-09-18T10:49:01.625Z,16.07
2018-09-18T10:51:34.975Z,19.23
2018-09-18T10:54:07.626Z,16.15
2018-09-18T10:56:40.805Z,15.57
2018-09-18T10:59:13.818Z,19.27
2018-09-18T11:01:46.685Z,15.13
2018-09-18T11:04:20.185Z,15.83
2018-09-18T11:06:53.006Z,15.83
2018-09-18T11:09:25.679Z,15.47
2018-09-18T11:11:58.709Z,13.60
2018-09-18T11:14:33.302Z,21.33
2018-09-18T11:17:07.017Z,26.10
2018-09-18T11:19:44.529Z,14.63
2018-09-18T11:22:17.236Z,8.70
2018-09-18T11:25:26.372Z,11.90
2018-09-18T11:28:06.026Z,15.33
2018-09-18T11:30:38.746Z,18.13
2018-09-18T11:33:11.550Z,18.83
2018-09-18T11:35:44.199Z,20.30
2018-09-18T11:38:17.122Z,25.83
2018-09-18T11:40:55.895Z,28.47
2018-09-18T11:43:29.114Z,19.10
2018-09-18T11:46:04.560Z,19.87
2018-09-18T11:48:42.059Z,19.33
2018-09-18T11:51:14.831Z,38.50
2018-09-18T11:53:48.057Z,16.10
2018-09-18T11:56:21.817Z,21.03
2018-09-18T11:58:56.091Z,19.40
2018-09-18T12:01:28.936Z,17.03
2018-09-18T12:04:03.672Z,17.37
2018-09-18T12:06:37.595Z,20.17
2018-09-18T12:09:15.938Z,24.70
2018-09-18T12:11:52.094Z,21.93
2018-09-18T12:14:37.278Z,19.73
2018-09-18T12:17:10.473Z,14.03
2018-09-18T12:19:43.183Z,24.80
2018-09-18T12:22:16.169Z,14.40
2018-09-18T12:24:49.412Z,18.47
2018-09-18T12:27:23.069Z,13.70
2018-09-18T12:29:57.241Z,19.37
2018-09-18T12:32:31.714Z,11.63
2018-09-18T12:35:07.059Z,16.63
2018-09-18T12:37:40.297Z,20.33
2018-09-18T12:40:14.932Z,21.10
2018-09-18T12:42:51.720Z,26.20
2018-09-18T12:45:25.172Z,28.20
2018-09-18T12:47:58.938Z,16.40
2018-09-18T12:50:33.316Z,12.73
2018-09-18T12:53:09.290Z,15.20
2018-09-18T12:55:43.612Z,9.73
2018-09-18T12:58:16.607Z,10.60
2018-09-18T13:00:56.984Z,12.37
2018-09-18T13:03:33.969Z,10.80
2018-09-18T13:06:37.581Z,11.07
2018-09-18T13:09:18.058Z,18.73
2018-09-18T13:11:58.992Z,10.73
2018-09-18T13:14:42.721Z,9.70
2018-09-18T13:17:18.511Z,12.97
2018-09-18T13:19:57.528Z,10.20
2018-09-18T13:22:35.514Z,16.30
2018-09-18T13:25:09.438Z,12.43
2018-09-18T13:27:44.431Z,15.73
2018-09-18T13:30:22.096Z,10.77
2018-09-18T13:32:55.095Z,11.13
2018-09-18T13:35:38.761Z,7.00
2018-09-18T13:38:11.564Z,38.73
2018-09-18T13:40:54.056Z,13.63
2018-09-18T13:43:32.257Z,9.50
2018-09-18T13:46:11.069Z,13.07
2018-09-18T13:48:50.742Z,12.03
2018-09-18T13:51:32.800Z,10.87
2018-09-18T13:54:09.809Z,10.13
2018-09-18T13:56:44.544Z,7.33
2018-09-18T13:59:19.959Z,12.83
2018-09-18T14:01:55.333Z,8.80
2018-09-18T14:04:29.871Z,6.60
2018-09-18T14:07:09.117Z,7.37
2018-09-18T14:09:48.585Z,8.60
2018-09-18T14:12:29.425Z,16.20
2018-09-18T14:15:12.695Z,9.30
2018-09-18T14:17:51.842Z,11.43
2018-09-18T14:20:37.139Z,9.20
2018-09-18T14:23:18.235Z,10.07
2018-09-18T14:26:01.557Z,7.70
2018-09-18T14:28:41.089Z,7.83
2018-09-18T14:31:22.791Z,8.03
2018-09-18T14:33:57.951Z,13.50
2018-09-18T14:36:32.808Z,10.53
2018-09-18T14:39:17.108Z,10.93
2018-09-18T14:41:57.054Z,8.00
2018-09-18T14:44:34.301Z,9.10
2018-09-18T14:47:09.680Z,7.10
2018-09-18T14:49:48.283Z,9.10
2018-09-18T14:52:30.199Z,8.23
2018-09-18T14:55:08.310Z,9.20
2018-09-18T14:57:46.019Z,11.10
2018-09-18T15:00:21.849Z,10.10
2018-09-18T15:02:57.876Z,37.83
2018-09-18T15:05:31.573Z,6.23
2018-09-18T15:08:05.566Z,6.33
2018-09-18T15:10:41.540Z,9.37
2018-09-18T15:13:20.278Z,6.87
2018-09-18T15:15:57.344Z,7.05
2018-09-18T15:21:20.421Z,6.03
2018-09-18T15:23:53.235Z,14.70
2018-09-18T15:26:31.800Z,19.97
2018-09-18T15:29:11.234Z,18.23
2018-09-18T15:31:50.607Z,8.83
2018-09-18T15:34:24.825Z,12.20
2018-09-18T15:37:01.073Z,6.40
2018-09-18T15:39:34.267Z,21.97
2018-09-18T15:42:14.718Z,14.17
2018-09-18T15:44:53.236Z,7.67
2018-09-18T15:47:26.979Z,55.97
2018-09-18T15:50:17.282Z,11.37
2018-09-18T15:55:41.778Z,8.60
2018-09-18T15:58:24.416Z,7.13
2018-09-18T16:01:08.273Z,7.90
2018-09-18T16:03:54.660Z,10.70
2018-09-18T16:06:31.378Z,9.13
2018-09-18T16:09:08.793Z,9.33
2018-09-18T16:11:43.754Z,7.03
2018-09-18T16:14:20.067Z,8.17
2018-09-18T16:16:53.355Z,7.07
2018-09-18T16:19:32.153Z,6.93
2018-09-18T16:22:15.163Z,5.60
2018-09-18T16:24:49.569Z,7.07
2018-09-18T16:27:28.519Z,6.00
2018-09-18T16:30:07.661Z,6.80
2018-09-18T16:32:48.784Z,8.03
2018-09-18T16:35:22.587Z,8.63
2018-09-18T16:37:57.706Z,6.13
2018-09-18T16:40:43.665Z,6.80
2018-09-18T16:43:23.540Z,4.83
2018-09-18T16:46:15.217Z,5.40
2018-09-18T16:48:54.787Z,5.70
2018-09-18T16:51:33.798Z,8.73
2018-09-18T16:54:10.685Z,4.87
2018-09-18T16:56:52.590Z,6.10
2018-09-18T16:59:31.523Z,7.17
2018-09-18T17:02:14.032Z,6.30
2018-09-18T17:04:52.618Z,5.87
2018-09-18T17:07:27.845Z,6.77
2018-09-18T17:10:06.260Z,6.00
2018-09-18T17:12:57.335Z,5.53
2018-09-18T17:15:33.265Z,6.17
2018-09-18T17:18:10.700Z,6.03
2018-09-18T17:20:46.711Z,6.37
2018-09-18T17:23:23.720Z,6.23
2018-09-18T17:25:57.030Z,5.97
2018-09-18T17:28:30.332Z,6.67
2018-09-18T17:31:03.368Z,4.73
2018-09-18T17:33:38.760Z,8.10
2018-09-18T17:36:13.660Z,6.00
2018-09-18T17:38:50.645Z,5.50
2018-09-18T17:41:28.796Z,5.20
2018-09-18T17:44:02.740Z,8.13
2018-09-18T17:46:43.880Z,4.60
2018-09-18T17:49:22.037Z,4.00
2018-09-18T17:51:57.471Z,4.80
2018-09-18T17:54:31.940Z,4.57
2018-09-18T17:57:08.283Z,5.27
2018-09-18T17:59:44.868Z,9.80
2018-09-18T18:02:18.326Z,7.00
2018-09-18T18:04:59.135Z,6.67
2018-09-18T18:07:34.284Z,5.00
2018-09-18T18:10:11.201Z,5.70
2018-09-18T18:12:51.512Z,6.10
2018-09-18T18:15:24.928Z,6.10
2018-09-18T18:18:00.862Z,7.70
2018-09-18T18:20:43.684Z,6.15
2018-09-18T18:23:21.639Z,4.47
2018-09-18T18:26:07.397Z,5.97
2018-09-18T18:28:41.424Z,4.50
2018-09-18T18:31:18.461Z,5.33
2018-09-18T18:33:56.183Z,8.03
2018-09-18T18:36:34.604Z,7.70
2018-09-18T18:39:20.821Z,4.53
2018-09-18T18:42:05.551Z,7.03
2018-09-18T18:44:41.699Z,4.10
2018-09-18T18:47:20.881Z,4.43
2018-09-18T18:49:57.540Z,5.60
2018-09-18T18:52:36.430Z,4.90
2018-09-18T18:55:16.370Z,10.13
2018-09-18T18:57:57.974Z,5.50
2018-09-18T19:00:33.617Z,5.65
2018-09-18T19:03:08.102Z,3.87
2018-09-18T19:05:42.183Z,4.70
2018-09-18T19:08:17.342Z,7.07
2018-09-18T19:10:50.769Z,9.93
2018-09-18T19:13:26.276Z,5.97
2018-09-18T19:16:03.368Z,3.80
2018-09-18T19:18:41.262Z,4.00
2018-09-18T19:21:39.645Z,10.93
2018-09-18T19:24:13.934Z,4.80
2018-09-18T19:26:48.181Z,5.37
2018-09-18T19:29:23.356Z,4.63
2018-09-18T19:32:04.077Z,5.43
2018-09-18T19:34:38.113Z,4.60
2018-09-18T19:37:15.454Z,5.73
2018-09-18T19:39:57.369Z,4.30
2018-09-18T19:42:36.901Z,5.00
2018-09-18T19:45:14.088Z,7.77
2018-09-18T19:47:54.640Z,8.10
2018-09-18T19:50:31.857Z,4.50
2018-09-18T19:53:10.438Z,5.37
2018-09-18T19:55:43.770Z,5.80
2018-09-18T19:58:19.318Z,5.27
2018-09-18T20:01:04.712Z,5.27
2018-09-18T20:03:38.831Z,4.60
2018-09-18T20:06:18.583Z,6.20
2018-09-18T20:08:51.714Z,11.13
2018-09-18T20:11:24.957Z,92.40
2018-09-18T20:13:59.796Z,8.90
2018-09-18T20:16:33.092Z,5.57
2018-09-18T20:19:10.278Z,7.25
2018-09-18T20:21:47.035Z,10.18
2018-09-18T20:24:27.846Z,4.70
2018-09-18T20:27:05.765Z,5.72
2018-09-18T20:29:42.636Z,6.10
2018-09-18T20:32:17.901Z,6.67
2018-09-18T20:34:52.878Z,4.87
2018-09-18T20:37:30.103Z,5.40
2018-09-18T20:40:06.319Z,5.70
2018-09-18T20:42:47.295Z,4.30
2018-09-18T20:45:23.095Z,6.67
2018-09-18T20:47:56.624Z,5.62
2018-09-18T20:50:38.882Z,3.30
2018-09-18T20:53:12.409Z,4.10
2018-09-18T20:55:57.990Z,6.10
2018-09-18T20:58:30.995Z,6.80
2018-09-18T21:01:08.660Z,10.70
2018-09-18T21:03:50.496Z,4.87
2018-09-18T21:06:27.813Z,6.97
2018-09-18T21:09:04.217Z,5.30
2018-09-18T21:11:37.317Z,6.75
2018-09-18T21:14:10.917Z,5.22
2018-09-18T21:16:48.924Z,12.05
2018-09-18T21:19:22.535Z,9.40
2018-09-18T21:21:56.397Z,4.65
2018-09-18T21:24:33.364Z,4.03
2018-09-18T21:27:06.543Z,15.10
2018-09-18T21:29:39.402Z,4.05
2018-09-18T21:32:12.378Z,6.90
2018-09-18T21:34:51.644Z,5.33
2018-09-18T21:37:24.608Z,6.47
2018-09-18T21:39:57.342Z,4.70
2018-09-18T21:42:31.236Z,5.20
2018-09-18T21:45:04.732Z,5.05
2018-09-18T21:47:38.551Z,7.20
2018-09-18T21:50:12.100Z,8.70
2018-09-18T21:52:48.256Z,11.83
2018-09-18T21:55:21.118Z,6.40
2018-09-18T21:57:56.655Z,7.58
2018-09-18T22:00:33.544Z,12.20
2018-09-18T22:03:06.380Z,6.50
2018-09-18T22:05:40.576Z,4.30
2018-09-18T22:08:16.197Z,5.42
2018-09-18T22:10:57.922Z,7.20
2018-09-18T22:13:33.760Z,7.60
2018-09-18T22:16:09.596Z,6.30
2018-09-18T22:18:45.420Z,19.05
2018-09-18T22:21:20.812Z,6.97
2018-09-18T22:24:05.043Z,5.60
2018-09-18T22:26:42.508Z,5.73
2018-09-18T22:29:18.251Z,6.23
2018-09-18T22:31:58.128Z,6.80
2018-09-18T22:34:33.814Z,5.60
2018-09-18T22:37:08.720Z,6.07
2018-09-18T22:39:42.803Z,8.27
2018-09-18T22:42:18.611Z,5.97
2018-09-18T22:44:58.136Z,6.27
2018-09-18T22:47:31.515Z,7.47
2018-09-18T22:53:42.135Z,12.98
2018-09-18T22:56:17.222Z,6.27
2018-09-18T22:58:54.756Z,8.20
2018-09-18T23:01:27.764Z,7.20
2018-09-18T23:04:02.727Z,6.20
2018-09-18T23:06:40.058Z,9.03
2018-09-18T23:09:16.203Z,10.60
2018-09-18T23:11:49.106Z,7.77
2018-09-18T23:14:24.339Z,9.13
2018-09-18T23:16:57.404Z,9.53
2018-09-18T23:19:32.122Z,6.30
2018-09-18T23:22:06.125Z,7.37
2018-09-18T23:24:40.316Z,6.73
2018-09-18T23:27:13.728Z,5.40
2018-09-18T23:29:52.792Z,7.20
2018-09-18T23:32:26.118Z,6.80
2018-09-18T23:35:02.856Z,7.07
2018-09-18T23:37:36.429Z,9.43
2018-09-18T23:40:09.615Z,7.30
2018-09-18T23:42:42.805Z,7.40
2018-09-18T23:45:16.651Z,5.97
2018-09-18T23:47:50.402Z,7.87
2018-09-18T23:50:24.133Z,7.77
2018-09-18T23:52:57.862Z,7.93
2018-09-18T23:55:30.661Z,8.80
2018-09-18T23:58:09.721Z,7.37
